UK50001 UZ1Q-UZTP
Flight info
| Callsign | UK50001 |
|---|---|
| Flight time | N/A |
| Altitude | 25000 |
| Route | ILGOZ DCT KUFIM DCT LIMGU DCT INBOG |
| Aircraft | SF50/L-SDGRWY/L |
Departure
| Time | N/A |
|---|---|
| Airport | UZ1Q |
Arrival
| Time | 2026-05-05 14:57 |
|---|---|
| Airport | Tashkent-Khumo International Airport (UZTP) |
| Time | Latitude | Longitude | Altitude | Speed | Heading |
|---|---|---|---|---|---|
| 2026-05-05 14:24 | 40.25393 | 67.91657 | 1054 ft | 0 kts | 138° |
| 2026-05-05 14:28 | 40.25379 | 67.91656 | 1055 ft | 5 kts | 224° |
| 2026-05-05 14:28 | 40.25379 | 67.91613 | 1055 ft | 4 kts | 292° |
| 2026-05-05 14:28 | 40.25387 | 67.91588 | 1055 ft | 4 kts | 292° |
| 2026-05-05 14:29 | 40.25382 | 67.91539 | 1055 ft | 6 kts | 224° |
| 2026-05-05 14:29 | 40.25351 | 67.91501 | 1055 ft | 5 kts | 223° |
| 2026-05-05 14:29 | 40.25321 | 67.91462 | 1055 ft | 7 kts | 224° |
| 2026-05-05 14:29 | 40.25282 | 67.91412 | 1055 ft | 9 kts | 224° |
| 2026-05-05 14:30 | 40.25230 | 67.91346 | 1055 ft | 11 kts | 224° |
| 2026-05-05 14:30 | 40.25187 | 67.91287 | 1055 ft | 7 kts | 248° |
| 2026-05-05 14:30 | 40.25183 | 67.91202 | 1055 ft | 9 kts | 270° |
| 2026-05-05 14:30 | 40.25184 | 67.91134 | 1056 ft | 9 kts | 270° |
| 2026-05-05 14:31 | 40.25184 | 67.91053 | 1055 ft | 8 kts | 270° |
| 2026-05-05 14:31 | 40.25167 | 67.90971 | 1056 ft | 11 kts | 238° |
| 2026-05-05 14:31 | 40.25113 | 67.90896 | 1056 ft | 12 kts | 225° |
| 2026-05-05 14:31 | 40.25047 | 67.90812 | 1056 ft | 14 kts | 224° |
| 2026-05-05 14:32 | 40.24980 | 67.90728 | 1055 ft | 12 kts | 224° |
| 2026-05-05 14:32 | 40.24952 | 67.90690 | 1055 ft | 5 kts | 70° |
| 2026-05-05 14:32 | 40.24972 | 67.90718 | 1055 ft | 3 kts | 43° |
| 2026-05-05 14:32 | 40.24975 | 67.90721 | 1055 ft | 0 kts | 43° |
| 2026-05-05 14:33 | 40.25058 | 67.90827 | 1056 ft | 52 kts | 43° |
| 2026-05-05 14:34 | 40.25504 | 67.91396 | 1168 ft | 113 kts | 44° |
| 2026-05-05 14:34 | 40.26078 | 67.92207 | 1644 ft | 132 kts | 47° |
| 2026-05-05 14:34 | 40.26732 | 67.93244 | 2068 ft | 163 kts | 49° |
| 2026-05-05 14:34 | 40.27477 | 67.94428 | 2912 ft | 169 kts | 49° |
| 2026-05-05 14:35 | 40.28233 | 67.95634 | 3826 ft | 175 kts | 50° |
| 2026-05-05 14:35 | 40.29020 | 67.96880 | 4725 ft | 179 kts | 51° |
| 2026-05-05 14:35 | 40.29819 | 67.98154 | 5614 ft | 183 kts | 51° |
| 2026-05-05 14:35 | 40.30636 | 67.99454 | 6509 ft | 186 kts | 51° |
| 2026-05-05 14:36 | 40.31468 | 68.00783 | 7334 ft | 191 kts | 51° |
| 2026-05-05 14:36 | 40.32311 | 68.02124 | 8143 ft | 196 kts | 50° |
| 2026-05-05 14:36 | 40.33208 | 68.03494 | 8938 ft | 201 kts | 45° |
| 2026-05-05 14:36 | 40.34219 | 68.04822 | 9756 ft | 206 kts | 44° |
| 2026-05-05 14:37 | 40.35229 | 68.06175 | 10517 ft | 209 kts | 44° |
| 2026-05-05 14:37 | 40.36246 | 68.07538 | 11314 ft | 209 kts | 44° |
| 2026-05-05 14:37 | 40.37253 | 68.08891 | 12096 ft | 210 kts | 44° |
| 2026-05-05 14:37 | 40.38279 | 68.10267 | 12906 ft | 211 kts | 43° |
| 2026-05-05 14:38 | 40.39309 | 68.11654 | 13705 ft | 212 kts | 43° |
| 2026-05-05 14:38 | 40.40344 | 68.13046 | 14415 ft | 213 kts | 43° |
| 2026-05-05 14:38 | 40.41383 | 68.14443 | 15090 ft | 215 kts | 42° |
| 2026-05-05 14:38 | 40.42431 | 68.15855 | 15744 ft | 216 kts | 42° |
| 2026-05-05 14:39 | 40.43512 | 68.17300 | 16003 ft | 238 kts | 42° |
| 2026-05-05 14:39 | 40.44731 | 68.18935 | 16013 ft | 262 kts | 43° |
| 2026-05-05 14:39 | 40.46042 | 68.20707 | 16010 ft | 278 kts | 43° |
| 2026-05-05 14:39 | 40.47423 | 68.22570 | 16009 ft | 290 kts | 43° |
| 2026-05-05 14:40 | 40.48864 | 68.24514 | 16008 ft | 302 kts | 43° |
| 2026-05-05 14:40 | 40.50356 | 68.26531 | 16007 ft | 313 kts | 43° |
| 2026-05-05 14:40 | 40.51872 | 68.28585 | 16008 ft | 310 kts | 43° |
| 2026-05-05 14:40 | 40.53356 | 68.30592 | 16013 ft | 308 kts | 43° |
| 2026-05-05 14:41 | 40.54852 | 68.32612 | 16006 ft | 307 kts | 43° |
| 2026-05-05 14:41 | 40.56339 | 68.34627 | 16010 ft | 306 kts | 43° |
| 2026-05-05 14:41 | 40.57823 | 68.36635 | 16005 ft | 306 kts | 43° |
| 2026-05-05 14:41 | 40.59304 | 68.38641 | 16006 ft | 305 kts | 43° |
| 2026-05-05 14:42 | 40.60783 | 68.40648 | 16007 ft | 305 kts | 43° |
| 2026-05-05 14:42 | 40.62261 | 68.42654 | 16004 ft | 305 kts | 43° |
| 2026-05-05 14:42 | 40.63740 | 68.44661 | 16004 ft | 305 kts | 43° |
| 2026-05-05 14:42 | 40.65214 | 68.46669 | 16004 ft | 305 kts | 43° |
| 2026-05-05 14:43 | 40.66672 | 68.48652 | 16006 ft | 305 kts | 43° |
| 2026-05-05 14:43 | 40.68149 | 68.50660 | 16008 ft | 305 kts | 43° |
| 2026-05-05 14:43 | 40.69622 | 68.52670 | 16006 ft | 305 kts | 43° |
| 2026-05-05 14:43 | 40.71100 | 68.54683 | 16013 ft | 305 kts | 43° |
| 2026-05-05 14:44 | 40.72579 | 68.56698 | 16017 ft | 306 kts | 44° |
| 2026-05-05 14:44 | 40.74058 | 68.58716 | 16014 ft | 306 kts | 44° |
| 2026-05-05 14:44 | 40.75535 | 68.60733 | 16021 ft | 306 kts | 44° |
| 2026-05-05 14:44 | 40.77014 | 68.62753 | 16019 ft | 306 kts | 44° |
| 2026-05-05 14:45 | 40.78494 | 68.64777 | 16018 ft | 306 kts | 44° |
| 2026-05-05 14:45 | 40.79971 | 68.66800 | 16019 ft | 306 kts | 44° |
| 2026-05-05 14:45 | 40.81574 | 68.68615 | 16004 ft | 303 kts | 31° |
| 2026-05-05 14:45 | 40.83375 | 68.69956 | 16004 ft | 301 kts | 26° |
| 2026-05-05 14:46 | 40.85213 | 68.71301 | 16009 ft | 302 kts | 26° |
| 2026-05-05 14:46 | 40.87045 | 68.72664 | 16005 ft | 302 kts | 26° |
| 2026-05-05 14:46 | 40.88884 | 68.74019 | 16010 ft | 303 kts | 26° |
| 2026-05-05 14:46 | 40.90725 | 68.75371 | 16011 ft | 303 kts | 26° |
| 2026-05-05 14:47 | 40.92565 | 68.76730 | 16009 ft | 303 kts | 26° |
| 2026-05-05 14:47 | 40.94405 | 68.78088 | 16009 ft | 303 kts | 26° |
| 2026-05-05 14:47 | 40.96251 | 68.79448 | 16009 ft | 303 kts | 26° |
| 2026-05-05 14:47 | 40.98090 | 68.80809 | 16009 ft | 303 kts | 26° |
| 2026-05-05 14:48 | 40.99932 | 68.82174 | 16015 ft | 303 kts | 26° |
| 2026-05-05 14:48 | 41.01772 | 68.83534 | 16011 ft | 303 kts | 26° |
| 2026-05-05 14:48 | 41.03614 | 68.84898 | 16017 ft | 303 kts | 26° |
| 2026-05-05 14:48 | 41.05430 | 68.86245 | 16029 ft | 303 kts | 26° |
| 2026-05-05 14:49 | 41.07274 | 68.87612 | 16025 ft | 304 kts | 26° |
| 2026-05-05 14:49 | 41.09119 | 68.88977 | 16027 ft | 304 kts | 26° |
| 2026-05-05 14:49 | 41.10965 | 68.90349 | 16033 ft | 304 kts | 27° |
| 2026-05-05 14:49 | 41.12812 | 68.91722 | 16025 ft | 304 kts | 26° |
| 2026-05-05 14:50 | 41.14665 | 68.93097 | 15523 ft | 298 kts | 27° |
| 2026-05-05 14:50 | 41.16466 | 68.94438 | 13558 ft | 302 kts | 27° |
| 2026-05-05 14:50 | 41.18298 | 68.95800 | 11751 ft | 298 kts | 27° |
| 2026-05-05 14:50 | 41.20073 | 68.97126 | 10000 ft | 288 kts | 27° |
| 2026-05-05 14:51 | 41.21769 | 68.98482 | 8032 ft | 282 kts | 34° |
| 2026-05-05 14:51 | 41.23144 | 69.00288 | 6846 ft | 264 kts | 52° |
| 2026-05-05 14:51 | 41.24191 | 69.02245 | 6795 ft | 269 kts | 56° |
| 2026-05-05 14:51 | 41.25273 | 69.04331 | 6528 ft | 276 kts | 56° |
| 2026-05-05 14:52 | 41.26359 | 69.06445 | 6166 ft | 278 kts | 56° |
| 2026-05-05 14:52 | 41.27433 | 69.08579 | 5792 ft | 276 kts | 59° |
| 2026-05-05 14:52 | 41.28153 | 69.10927 | 5422 ft | 274 kts | 76° |
| 2026-05-05 14:52 | 41.28476 | 69.13411 | 4982 ft | 267 kts | 83° |
| 2026-05-05 14:53 | 41.28702 | 69.15719 | 4635 ft | 243 kts | 83° |
| 2026-05-05 14:53 | 41.28946 | 69.17841 | 4325 ft | 220 kts | 82° |
| 2026-05-05 14:53 | 41.29149 | 69.19748 | 4053 ft | 197 kts | 83° |
| 2026-05-05 14:53 | 41.29333 | 69.21466 | 3806 ft | 180 kts | 81° |
| 2026-05-05 14:54 | 41.29507 | 69.23000 | 3598 ft | 153 kts | 83° |
| 2026-05-05 14:54 | 41.29639 | 69.24295 | 3407 ft | 131 kts | 81° |
| 2026-05-05 14:54 | 41.29768 | 69.25414 | 3253 ft | 112 kts | 82° |
| 2026-05-05 14:54 | 41.29872 | 69.26415 | 3109 ft | 114 kts | 81° |
| 2026-05-05 14:55 | 41.29993 | 69.27500 | 2968 ft | 120 kts | 82° |
| 2026-05-05 14:55 | 41.30112 | 69.28604 | 2805 ft | 120 kts | 81° |
| 2026-05-05 14:55 | 41.30230 | 69.29703 | 2653 ft | 120 kts | 81° |
| 2026-05-05 14:55 | 41.30351 | 69.30798 | 2496 ft | 119 kts | 81° |
| 2026-05-05 14:56 | 41.30468 | 69.31894 | 2342 ft | 120 kts | 81° |
| 2026-05-05 14:56 | 41.30588 | 69.32981 | 2192 ft | 119 kts | 81° |
| 2026-05-05 14:56 | 41.30703 | 69.34082 | 2041 ft | 122 kts | 81° |
| 2026-05-05 14:56 | 41.30830 | 69.35198 | 1882 ft | 119 kts | 81° |
| 2026-05-05 14:57 | 41.30939 | 69.36224 | 1734 ft | 107 kts | 82° |
| 2026-05-05 14:57 | 41.31046 | 69.37179 | 1610 ft | 101 kts | 82° |
| 2026-05-05 14:57 | 41.31134 | 69.38030 | 1570 ft | 81 kts | 79° |
| 2026-05-05 14:57 | 41.31205 | 69.38650 | 1574 ft | 42 kts | 81° |
| 2026-05-05 14:58 | 41.31241 | 69.38974 | 1577 ft | 32 kts | 82° |
| 2026-05-05 14:58 | 41.31272 | 69.39262 | 1575 ft | 31 kts | 82° |
| 2026-05-05 14:58 | 41.31300 | 69.39531 | 1575 ft | 27 kts | 83° |
| 2026-05-05 14:58 | 41.31324 | 69.39757 | 1576 ft | 22 kts | 81° |
| 2026-05-05 14:59 | 41.31346 | 69.39943 | 1577 ft | 18 kts | 81° |
| 2026-05-05 14:59 | 41.31294 | 69.40066 | 1580 ft | 14 kts | 163° |
| 2026-05-05 14:59 | 41.31203 | 69.40089 | 1578 ft | 12 kts | 168° |
| 2026-05-05 14:59 | 41.31127 | 69.40105 | 1577 ft | 10 kts | 168° |
| 2026-05-05 15:00 | 41.31102 | 69.40165 | 1578 ft | 7 kts | 81° |
| 2026-05-05 15:00 | 41.31107 | 69.40209 | 1578 ft | 8 kts | 82° |
| 2026-05-05 15:00 | 41.31111 | 69.40297 | 1579 ft | 5 kts | 133° |
| 2026-05-05 15:00 | 41.31094 | 69.40301 | 1579 ft | 2 kts | 171° |
| 2026-05-05 15:01 | 41.31091 | 69.40302 | 1579 ft | 0 kts | 170° |